sensor_id;sensor_type;location;lat;lon;timestamp;temperature;humidity
24035;DHT22;12242;50.952;4.678;2022-07-18T00:02:07;20.00;93.10
24035;DHT22;12242;50.952;4.678;2022-07-18T00:04:35;20.00;93.30
24035;DHT22;12242;50.952;4.678;2022-07-18T00:07:03;19.90;93.50
24035;DHT22;12242;50.952;4.678;2022-07-18T00:09:31;19.90;93.60
24035;DHT22;12242;50.952;4.678;2022-07-18T00:12:04;19.90;93.50
24035;DHT22;12242;50.952;4.678;2022-07-18T00:14:32;20.00;93.60
24035;DHT22;12242;50.952;4.678;2022-07-18T00:17:03;20.00;93.40
24035;DHT22;12242;50.952;4.678;2022-07-18T00:19:31;19.90;93.80
24035;DHT22;12242;50.952;4.678;2022-07-18T00:21:59;19.90;93.90
24035;DHT22;12242;50.952;4.678;2022-07-18T00:24:28;19.90;93.90
24035;DHT22;12242;50.952;4.678;2022-07-18T00:26:56;19.80;93.90
24035;DHT22;12242;50.952;4.678;2022-07-18T00:29:28;19.80;94.10
24035;DHT22;12242;50.952;4.678;2022-07-18T00:31:56;19.80;94.30
24035;DHT22;12242;50.952;4.678;2022-07-18T00:34:23;19.70;94.30
24035;DHT22;12242;50.952;4.678;2022-07-18T00:36:51;19.70;94.60
24035;DHT22;12242;50.952;4.678;2022-07-18T00:39:19;19.60;94.60
24035;DHT22;12242;50.952;4.678;2022-07-18T00:41:50;19.60;95.00
24035;DHT22;12242;50.952;4.678;2022-07-18T00:44:19;19.50;95.00
24035;DHT22;12242;50.952;4.678;2022-07-18T00:46:55;19.50;95.10
24035;DHT22;12242;50.952;4.678;2022-07-18T00:49:25;19.50;95.40
24035;DHT22;12242;50.952;4.678;2022-07-18T00:51:54;19.50;95.40
24035;DHT22;12242;50.952;4.678;2022-07-18T00:54:24;19.40;95.40
24035;DHT22;12242;50.952;4.678;2022-07-18T00:56:51;19.40;95.40
24035;DHT22;12242;50.952;4.678;2022-07-18T00:59:21;19.40;95.60
24035;DHT22;12242;50.952;4.678;2022-07-18T01:01:53;19.40;95.60
24035;DHT22;12242;50.952;4.678;2022-07-18T01:04:22;19.30;95.40
24035;DHT22;12242;50.952;4.678;2022-07-18T01:06:52;19.30;95.30
24035;DHT22;12242;50.952;4.678;2022-07-18T01:09:19;19.30;95.40
24035;DHT22;12242;50.952;4.678;2022-07-18T01:11:47;19.20;95.50
24035;DHT22;12242;50.952;4.678;2022-07-18T01:14:15;19.20;95.50
24035;DHT22;12242;50.952;4.678;2022-07-18T01:16:45;19.20;95.60
24035;DHT22;12242;50.952;4.678;2022-07-18T01:19:13;19.20;96.00
24035;DHT22;12242;50.952;4.678;2022-07-18T01:21:40;19.20;96.20
24035;DHT22;12242;50.952;4.678;2022-07-18T01:24:09;19.10;96.10
24035;DHT22;12242;50.952;4.678;2022-07-18T01:26:38;19.10;96.10
24035;DHT22;12242;50.952;4.678;2022-07-18T01:29:06;19.00;96.30
24035;DHT22;12242;50.952;4.678;2022-07-18T01:31:34;19.10;96.40
24035;DHT22;12242;50.952;4.678;2022-07-18T01:34:01;19.00;96.30
24035;DHT22;12242;50.952;4.678;2022-07-18T01:36:30;19.00;96.30
24035;DHT22;12242;50.952;4.678;2022-07-18T01:38:58;19.00;96.10
24035;DHT22;12242;50.952;4.678;2022-07-18T01:41:25;18.90;96.40
24035;DHT22;12242;50.952;4.678;2022-07-18T01:43:55;18.90;96.50
24035;DHT22;12242;50.952;4.678;2022-07-18T01:46:25;18.90;96.70
24035;DHT22;12242;50.952;4.678;2022-07-18T01:48:52;18.90;96.70
24035;DHT22;12242;50.952;4.678;2022-07-18T01:51:20;18.90;97.00
24035;DHT22;12242;50.952;4.678;2022-07-18T01:53:55;18.80;97.00
24035;DHT22;12242;50.952;4.678;2022-07-18T01:56:25;18.80;97.10
24035;DHT22;12242;50.952;4.678;2022-07-18T01:58:53;18.80;97.20
24035;DHT22;12242;50.952;4.678;2022-07-18T02:01:20;18.70;97.30
24035;DHT22;12242;50.952;4.678;2022-07-18T02:03:48;18.70;97.20
24035;DHT22;12242;50.952;4.678;2022-07-18T02:06:16;18.70;97.20
24035;DHT22;12242;50.952;4.678;2022-07-18T02:08:44;18.60;97.10
24035;DHT22;12242;50.952;4.678;2022-07-18T02:11:12;18.60;97.20
24035;DHT22;12242;50.952;4.678;2022-07-18T02:13:40;18.50;97.60
24035;DHT22;12242;50.952;4.678;2022-07-18T02:16:07;18.40;97.80
24035;DHT22;12242;50.952;4.678;2022-07-18T02:18:35;18.30;97.80
24035;DHT22;12242;50.952;4.678;2022-07-18T02:21:09;18.00;98.30
24035;DHT22;12242;50.952;4.678;2022-07-18T02:23:36;17.90;98.50
24035;DHT22;12242;50.952;4.678;2022-07-18T02:26:04;17.90;98.80
24035;DHT22;12242;50.952;4.678;2022-07-18T02:28:34;18.00;98.60
24035;DHT22;12242;50.952;4.678;2022-07-18T02:31:04;18.10;98.50
24035;DHT22;12242;50.952;4.678;2022-07-18T02:33:32;18.20;98.30
24035;DHT22;12242;50.952;4.678;2022-07-18T02:36:01;18.20;98.30
24035;DHT22;12242;50.952;4.678;2022-07-18T02:38:28;18.30;98.30
24035;DHT22;12242;50.952;4.678;2022-07-18T02:40:55;18.30;98.30
24035;DHT22;12242;50.952;4.678;2022-07-18T02:43:23;18.30;98.20
24035;DHT22;12242;50.952;4.678;2022-07-18T02:45:51;18.20;98.10
24035;DHT22;12242;50.952;4.678;2022-07-18T02:48:18;18.20;98.00
24035;DHT22;12242;50.952;4.678;2022-07-18T02:50:46;18.20;98.00
24035;DHT22;12242;50.952;4.678;2022-07-18T02:53:13;18.10;98.20
24035;DHT22;12242;50.952;4.678;2022-07-18T02:55:40;18.10;98.40
24035;DHT22;12242;50.952;4.678;2022-07-18T02:58:08;18.10;98.50
24035;DHT22;12242;50.952;4.678;2022-07-18T03:00:35;18.10;98.60
24035;DHT22;12242;50.952;4.678;2022-07-18T03:03:03;18.10;98.70
24035;DHT22;12242;50.952;4.678;2022-07-18T03:05:31;18.10;98.70
24035;DHT22;12242;50.952;4.678;2022-07-18T03:07:58;18.10;98.70
24035;DHT22;12242;50.952;4.678;2022-07-18T03:10:26;18.10;98.80
24035;DHT22;12242;50.952;4.678;2022-07-18T03:12:54;18.10;98.90
24035;DHT22;12242;50.952;4.678;2022-07-18T03:15:21;18.00;99.00
24035;DHT22;12242;50.952;4.678;2022-07-18T03:17:49;18.00;99.10
24035;DHT22;12242;50.952;4.678;2022-07-18T03:20:16;17.90;99.30
24035;DHT22;12242;50.952;4.678;2022-07-18T03:22:44;18.00;99.30
24035;DHT22;12242;50.952;4.678;2022-07-18T03:25:12;17.90;99.50
24035;DHT22;12242;50.952;4.678;2022-07-18T03:27:42;17.90;99.70
24035;DHT22;12242;50.952;4.678;2022-07-18T03:30:12;17.90;99.50
24035;DHT22;12242;50.952;4.678;2022-07-18T03:32:42;17.90;99.30
24035;DHT22;12242;50.952;4.678;2022-07-18T03:35:10;17.80;99.60
24035;DHT22;12242;50.952;4.678;2022-07-18T03:37:37;17.90;99.50
24035;DHT22;12242;50.952;4.678;2022-07-18T03:40:07;17.80;99.50
24035;DHT22;12242;50.952;4.678;2022-07-18T03:42:39;17.80;99.70
24035;DHT22;12242;50.952;4.678;2022-07-18T03:45:09;17.80;99.60
24035;DHT22;12242;50.952;4.678;2022-07-18T03:47:39;17.80;99.70
24035;DHT22;12242;50.952;4.678;2022-07-18T03:50:07;17.80;99.90
24035;DHT22;12242;50.952;4.678;2022-07-18T03:52:34;17.80;99.90
24035;DHT22;12242;50.952;4.678;2022-07-18T03:55:02;17.80;99.90
24035;DHT22;12242;50.952;4.678;2022-07-18T03:57:30;17.80;99.90
24035;DHT22;12242;50.952;4.678;2022-07-18T03:59:57;17.80;99.90
24035;DHT22;12242;50.952;4.678;2022-07-18T04:02:25;17.80;99.90
24035;DHT22;12242;50.952;4.678;2022-07-18T04:04:54;17.80;99.90
24035;DHT22;12242;50.952;4.678;2022-07-18T04:07:21;17.80;99.80
24035;DHT22;12242;50.952;4.678;2022-07-18T04:09:49;17.80;99.80
24035;DHT22;12242;50.952;4.678;2022-07-18T04:12:17;17.80;99.90
24035;DHT22;12242;50.952;4.678;2022-07-18T04:14:44;17.80;99.90
24035;DHT22;12242;50.952;4.678;2022-07-18T04:17:11;17.80;99.90
24035;DHT22;12242;50.952;4.678;2022-07-18T04:19:39;17.80;99.90
24035;DHT22;12242;50.952;4.678;2022-07-18T04:22:08;17.80;99.90
24035;DHT22;12242;50.952;4.678;2022-07-18T04:24:39;17.80;99.90
24035;DHT22;12242;50.952;4.678;2022-07-18T04:27:06;17.70;99.90
24035;DHT22;12242;50.952;4.678;2022-07-18T04:29:36;17.70;99.90
24035;DHT22;12242;50.952;4.678;2022-07-18T04:32:05;17.70;99.90
24035;DHT22;12242;50.952;4.678;2022-07-18T04:34:34;17.70;99.90
24035;DHT22;12242;50.952;4.678;2022-07-18T04:37:01;17.70;99.90
24035;DHT22;12242;50.952;4.678;2022-07-18T04:39:31;17.70;99.90
24035;DHT22;12242;50.952;4.678;2022-07-18T04:41:59;17.60;99.90
24035;DHT22;12242;50.952;4.678;2022-07-18T04:44:26;17.50;99.90
24035;DHT22;12242;50.952;4.678;2022-07-18T04:46:56;17.30;99.90
24035;DHT22;12242;50.952;4.678;2022-07-18T04:49:23;17.20;99.90
24035;DHT22;12242;50.952;4.678;2022-07-18T04:51:51;17.30;99.90
24035;DHT22;12242;50.952;4.678;2022-07-18T04:54:19;17.20;99.90
24035;DHT22;12242;50.952;4.678;2022-07-18T04:56:46;17.00;99.90
24035;DHT22;12242;50.952;4.678;2022-07-18T04:59:14;16.60;99.90
24035;DHT22;12242;50.952;4.678;2022-07-18T05:01:44;16.40;99.90
24035;DHT22;12242;50.952;4.678;2022-07-18T05:04:14;16.60;99.90
24035;DHT22;12242;50.952;4.678;2022-07-18T05:06:42;16.90;99.90
24035;DHT22;12242;50.952;4.678;2022-07-18T05:09:10;16.80;99.90
24035;DHT22;12242;50.952;4.678;2022-07-18T05:11:37;16.70;99.90
24035;DHT22;12242;50.952;4.678;2022-07-18T05:14:04;16.90;99.90
24035;DHT22;12242;50.952;4.678;2022-07-18T05:16:32;16.90;99.90
24035;DHT22;12242;50.952;4.678;2022-07-18T05:19:02;17.10;99.90
24035;DHT22;12242;50.952;4.678;2022-07-18T05:21:30;17.40;99.90
24035;DHT22;12242;50.952;4.678;2022-07-18T05:23:58;17.80;99.90
24035;DHT22;12242;50.952;4.678;2022-07-18T05:26:25;18.00;99.90
24035;DHT22;12242;50.952;4.678;2022-07-18T05:29:05;18.10;99.90
24035;DHT22;12242;50.952;4.678;2022-07-18T05:31:32;18.10;99.90
24035;DHT22;12242;50.952;4.678;2022-07-18T05:34:00;17.90;99.90
24035;DHT22;12242;50.952;4.678;2022-07-18T05:36:28;17.90;99.90
24035;DHT22;12242;50.952;4.678;2022-07-18T05:38:56;17.80;99.90
24035;DHT22;12242;50.952;4.678;2022-07-18T05:41:25;17.60;99.90
24035;DHT22;12242;50.952;4.678;2022-07-18T05:43:55;17.70;99.90
24035;DHT22;12242;50.952;4.678;2022-07-18T05:46:23;17.70;99.90
24035;DHT22;12242;50.952;4.678;2022-07-18T05:48:57;17.70;99.90
24035;DHT22;12242;50.952;4.678;2022-07-18T05:51:27;18.10;99.90
24035;DHT22;12242;50.952;4.678;2022-07-18T05:53:54;18.20;99.90
24035;DHT22;12242;50.952;4.678;2022-07-18T05:56:22;18.20;99.90
24035;DHT22;12242;50.952;4.678;2022-07-18T05:58:49;18.10;99.90
24035;DHT22;12242;50.952;4.678;2022-07-18T06:01:16;18.20;99.90
24035;DHT22;12242;50.952;4.678;2022-07-18T06:03:49;18.30;99.90
24035;DHT22;12242;50.952;4.678;2022-07-18T06:06:19;18.50;99.90
24035;DHT22;12242;50.952;4.678;2022-07-18T06:08:46;18.80;99.90
24035;DHT22;12242;50.952;4.678;2022-07-18T06:11:14;19.20;99.90
24035;DHT22;12242;50.952;4.678;2022-07-18T06:13:41;19.70;99.90
24035;DHT22;12242;50.952;4.678;2022-07-18T06:16:11;20.20;99.90
24035;DHT22;12242;50.952;4.678;2022-07-18T06:18:41;20.70;99.90
24035;DHT22;12242;50.952;4.678;2022-07-18T06:21:09;21.00;99.90
24035;DHT22;12242;50.952;4.678;2022-07-18T06:23:39;21.30;99.50
24035;DHT22;12242;50.952;4.678;2022-07-18T06:26:07;21.50;99.90
24035;DHT22;12242;50.952;4.678;2022-07-18T06:28:37;21.70;99.20
24035;DHT22;12242;50.952;4.678;2022-07-18T06:31:09;21.90;98.80
24035;DHT22;12242;50.952;4.678;2022-07-18T06:33:40;22.20;98.70
24035;DHT22;12242;50.952;4.678;2022-07-18T06:36:12;22.40;98.30
24035;DHT22;12242;50.952;4.678;2022-07-18T06:38:43;22.70;97.30
24035;DHT22;12242;50.952;4.678;2022-07-18T06:41:11;23.00;97.00
24035;DHT22;12242;50.952;4.678;2022-07-18T06:43:41;23.30;96.30
24035;DHT22;12242;50.952;4.678;2022-07-18T06:46:09;23.60;95.10
24035;DHT22;12242;50.952;4.678;2022-07-18T06:48:37;23.60;92.70
24035;DHT22;12242;50.952;4.678;2022-07-18T06:51:06;23.60;91.60
24035;DHT22;12242;50.952;4.678;2022-07-18T06:53:34;23.60;91.60
24035;DHT22;12242;50.952;4.678;2022-07-18T06:56:02;23.90;91.90
24035;DHT22;12242;50.952;4.678;2022-07-18T06:58:30;24.30;91.20
24035;DHT22;12242;50.952;4.678;2022-07-18T07:01:00;24.70;91.20
24035;DHT22;12242;50.952;4.678;2022-07-18T07:03:28;24.80;84.70
24035;DHT22;12242;50.952;4.678;2022-07-18T07:05:56;25.00;81.70
24035;DHT22;12242;50.952;4.678;2022-07-18T07:08:23;25.30;84.00
24035;DHT22;12242;50.952;4.678;2022-07-18T07:10:54;25.50;80.90
24035;DHT22;12242;50.952;4.678;2022-07-18T07:13:21;25.80;79.30
24035;DHT22;12242;50.952;4.678;2022-07-18T07:15:52;25.80;79.70
24035;DHT22;12242;50.952;4.678;2022-07-18T07:18:20;25.90;79.00
24035;DHT22;12242;50.952;4.678;2022-07-18T07:20:48;26.10;78.70
24035;DHT22;12242;50.952;4.678;2022-07-18T07:23:18;26.40;79.80
24035;DHT22;12242;50.952;4.678;2022-07-18T07:25:46;26.70;78.00
24035;DHT22;12242;50.952;4.678;2022-07-18T07:28:14;26.90;76.30
24035;DHT22;12242;50.952;4.678;2022-07-18T07:30:43;27.10;74.10
24035;DHT22;12242;50.952;4.678;2022-07-18T07:33:11;27.50;75.00
24035;DHT22;12242;50.952;4.678;2022-07-18T07:35:41;27.70;74.00
24035;DHT22;12242;50.952;4.678;2022-07-18T07:38:09;27.90;73.20
24035;DHT22;12242;50.952;4.678;2022-07-18T07:40:50;28.20;71.70
24035;DHT22;12242;50.952;4.678;2022-07-18T07:43:20;28.50;70.50
24035;DHT22;12242;50.952;4.678;2022-07-18T07:45:49;28.70;70.50
24035;DHT22;12242;50.952;4.678;2022-07-18T07:48:21;29.10;69.70
24035;DHT22;12242;50.952;4.678;2022-07-18T07:50:55;29.20;68.30
24035;DHT22;12242;50.952;4.678;2022-07-18T07:53:25;29.50;68.70
24035;DHT22;12242;50.952;4.678;2022-07-18T07:56:01;29.70;68.10
24035;DHT22;12242;50.952;4.678;2022-07-18T07:58:28;30.10;67.90
24035;DHT22;12242;50.952;4.678;2022-07-18T08:00:58;30.30;67.30
24035;DHT22;12242;50.952;4.678;2022-07-18T08:03:28;30.50;67.40
24035;DHT22;12242;50.952;4.678;2022-07-18T08:05:57;30.70;65.00
24035;DHT22;12242;50.952;4.678;2022-07-18T08:08:28;30.80;66.90
24035;DHT22;12242;50.952;4.678;2022-07-18T08:10:55;31.10;65.30
24035;DHT22;12242;50.952;4.678;2022-07-18T08:13:25;31.30;65.50
24035;DHT22;12242;50.952;4.678;2022-07-18T08:15:55;31.40;64.30
24035;DHT22;12242;50.952;4.678;2022-07-18T08:18:25;31.60;65.40
24035;DHT22;12242;50.952;4.678;2022-07-18T08:20:52;31.70;66.10
24035;DHT22;12242;50.952;4.678;2022-07-18T08:23:21;32.00;64.60
24035;DHT22;12242;50.952;4.678;2022-07-18T08:25:51;32.50;62.90
24035;DHT22;12242;50.952;4.678;2022-07-18T08:28:21;32.60;63.10
24035;DHT22;12242;50.952;4.678;2022-07-18T08:30:48;32.80;62.30
24035;DHT22;12242;50.952;4.678;2022-07-18T08:33:18;32.90;61.80
24035;DHT22;12242;50.952;4.678;2022-07-18T08:35:45;33.20;61.20
24035;DHT22;12242;50.952;4.678;2022-07-18T08:38:16;33.40;61.20
24035;DHT22;12242;50.952;4.678;2022-07-18T08:40:50;33.30;59.30
24035;DHT22;12242;50.952;4.678;2022-07-18T08:43:19;33.30;59.80
24035;DHT22;12242;50.952;4.678;2022-07-18T08:45:55;33.30;58.00
24035;DHT22;12242;50.952;4.678;2022-07-18T08:48:24;33.30;57.40
24035;DHT22;12242;50.952;4.678;2022-07-18T08:50:51;33.50;59.90
24035;DHT22;12242;50.952;4.678;2022-07-18T08:53:23;33.40;59.30
24035;DHT22;12242;50.952;4.678;2022-07-18T08:55:51;33.40;58.40
24035;DHT22;12242;50.952;4.678;2022-07-18T08:58:21;33.60;58.80
24035;DHT22;12242;50.952;4.678;2022-07-18T09:01:11;33.70;57.60
24035;DHT22;12242;50.952;4.678;2022-07-18T09:03:39;34.00;59.40
24035;DHT22;12242;50.952;4.678;2022-07-18T09:06:12;33.80;57.40
24035;DHT22;12242;50.952;4.678;2022-07-18T09:08:57;33.90;57.70
24035;DHT22;12242;50.952;4.678;2022-07-18T09:11:27;34.00;57.40
24035;DHT22;12242;50.952;4.678;2022-07-18T09:14:41;34.10;56.80
24035;DHT22;12242;50.952;4.678;2022-07-18T09:17:22;34.30;56.40
24035;DHT22;12242;50.952;4.678;2022-07-18T09:20:11;34.40;57.70
24035;DHT22;12242;50.952;4.678;2022-07-18T09:22:43;35.00;57.60
24035;DHT22;12242;50.952;4.678;2022-07-18T09:27:42;35.40;55.70
24035;DHT22;12242;50.952;4.678;2022-07-18T09:33:06;35.80;54.30
24035;DHT22;12242;50.952;4.678;2022-07-18T09:35:38;35.60;55.70
24035;DHT22;12242;50.952;4.678;2022-07-18T09:38:11;35.80;55.30
24035;DHT22;12242;50.952;4.678;2022-07-18T09:40:45;35.90;54.20
24035;DHT22;12242;50.952;4.678;2022-07-18T09:43:15;35.90;52.80
24035;DHT22;12242;50.952;4.678;2022-07-18T09:45:48;35.80;53.20
24035;DHT22;12242;50.952;4.678;2022-07-18T09:48:35;36.00;52.60
24035;DHT22;12242;50.952;4.678;2022-07-18T09:51:12;36.30;52.80
24035;DHT22;12242;50.952;4.678;2022-07-18T09:53:42;36.60;52.70
24035;DHT22;12242;50.952;4.678;2022-07-18T09:56:13;37.00;52.30
24035;DHT22;12242;50.952;4.678;2022-07-18T09:58:51;37.30;53.50
24035;DHT22;12242;50.952;4.678;2022-07-18T10:01:27;37.70;53.00
24035;DHT22;12242;50.952;4.678;2022-07-18T10:03:59;38.00;50.80
24035;DHT22;12242;50.952;4.678;2022-07-18T10:06:33;38.30;51.30
24035;DHT22;12242;50.952;4.678;2022-07-18T10:09:04;38.40;50.60
24035;DHT22;12242;50.952;4.678;2022-07-18T10:11:38;38.60;50.50
24035;DHT22;12242;50.952;4.678;2022-07-18T10:14:06;38.90;49.60
24035;DHT22;12242;50.952;4.678;2022-07-18T10:16:35;39.00;49.80
24035;DHT22;12242;50.952;4.678;2022-07-18T10:19:04;39.20;49.10
24035;DHT22;12242;50.952;4.678;2022-07-18T10:21:34;39.60;49.40
24035;DHT22;12242;50.952;4.678;2022-07-18T10:24:02;39.40;47.90
24035;DHT22;12242;50.952;4.678;2022-07-18T10:26:30;39.30;48.60
24035;DHT22;12242;50.952;4.678;2022-07-18T10:31:30;39.80;48.90
24035;DHT22;12242;50.952;4.678;2022-07-18T10:36:38;39.70;48.90
24035;DHT22;12242;50.952;4.678;2022-07-18T10:39:12;39.60;46.90
24035;DHT22;12242;50.952;4.678;2022-07-18T10:57:40;39.70;45.60
24035;DHT22;12242;50.952;4.678;2022-07-18T11:00:15;39.60;46.00
24035;DHT22;12242;50.952;4.678;2022-07-18T11:05:34;39.60;46.50
24035;DHT22;12242;50.952;4.678;2022-07-18T11:13:28;39.60;44.80
24035;DHT22;12242;50.952;4.678;2022-07-18T11:16:01;39.70;45.00
24035;DHT22;12242;50.952;4.678;2022-07-18T11:18:36;39.50;44.80
24035;DHT22;12242;50.952;4.678;2022-07-18T11:26:33;39.80;45.00
24035;DHT22;12242;50.952;4.678;2022-07-18T11:29:10;40.00;47.00
24035;DHT22;12242;50.952;4.678;2022-07-18T11:34:17;40.10;42.90
24035;DHT22;12242;50.952;4.678;2022-07-18T11:37:03;40.20;44.20
24035;DHT22;12242;50.952;4.678;2022-07-18T11:39:32;40.20;43.50
24035;DHT22;12242;50.952;4.678;2022-07-18T11:42:13;40.00;43.20
24035;DHT22;12242;50.952;4.678;2022-07-18T11:44:45;40.20;42.20
24035;DHT22;12242;50.952;4.678;2022-07-18T11:47:15;40.10;42.00
24035;DHT22;12242;50.952;4.678;2022-07-18T11:49:54;39.70;42.60
24035;DHT22;12242;50.952;4.678;2022-07-18T11:52:22;39.40;43.10
24035;DHT22;12242;50.952;4.678;2022-07-18T11:55:07;39.10;43.60
24035;DHT22;12242;50.952;4.678;2022-07-18T11:57:36;39.10;43.60
24035;DHT22;12242;50.952;4.678;2022-07-18T12:00:20;39.00;41.80
24035;DHT22;12242;50.952;4.678;2022-07-18T12:03:24;38.50;42.60
24035;DHT22;12242;50.952;4.678;2022-07-18T12:05:53;38.40;43.60
24035;DHT22;12242;50.952;4.678;2022-07-18T12:08:33;38.40;46.00
24035;DHT22;12242;50.952;4.678;2022-07-18T12:13:44;38.80;43.50
24035;DHT22;12242;50.952;4.678;2022-07-18T12:19:11;39.00;44.40
24035;DHT22;12242;50.952;4.678;2022-07-18T12:22:09;39.00;43.70
24035;DHT22;12242;50.952;4.678;2022-07-18T12:24:55;39.00;43.60
24035;DHT22;12242;50.952;4.678;2022-07-18T12:35:29;38.50;43.30
24035;DHT22;12242;50.952;4.678;2022-07-18T12:37:59;38.60;42.20
24035;DHT22;12242;50.952;4.678;2022-07-18T12:40:56;38.40;42.70
24035;DHT22;12242;50.952;4.678;2022-07-18T12:43:31;38.40;42.00
24035;DHT22;12242;50.952;4.678;2022-07-18T12:46:02;38.30;43.40
24035;DHT22;12242;50.952;4.678;2022-07-18T12:48:38;38.30;42.20
24035;DHT22;12242;50.952;4.678;2022-07-18T12:51:10;38.30;42.50
24035;DHT22;12242;50.952;4.678;2022-07-18T12:53:47;38.40;43.40
24035;DHT22;12242;50.952;4.678;2022-07-18T12:56:20;38.30;44.00
24035;DHT22;12242;50.952;4.678;2022-07-18T12:58:48;38.30;43.10
24035;DHT22;12242;50.952;4.678;2022-07-18T13:01:17;38.20;42.40
24035;DHT22;12242;50.952;4.678;2022-07-18T13:03:45;37.80;45.20
24035;DHT22;12242;50.952;4.678;2022-07-18T13:06:12;37.90;43.50
24035;DHT22;12242;50.952;4.678;2022-07-18T13:08:49;38.10;43.00
24035;DHT22;12242;50.952;4.678;2022-07-18T13:11:17;38.00;42.40
24035;DHT22;12242;50.952;4.678;2022-07-18T13:13:44;38.20;42.60
24035;DHT22;12242;50.952;4.678;2022-07-18T13:16:13;38.40;43.80
24035;DHT22;12242;50.952;4.678;2022-07-18T13:18:40;38.30;42.60
24035;DHT22;12242;50.952;4.678;2022-07-18T13:21:10;38.20;44.00
24035;DHT22;12242;50.952;4.678;2022-07-18T13:23:39;38.20;42.10
24035;DHT22;12242;50.952;4.678;2022-07-18T13:26:07;38.30;41.70
24035;DHT22;12242;50.952;4.678;2022-07-18T13:28:34;38.20;40.80
24035;DHT22;12242;50.952;4.678;2022-07-18T13:31:06;38.20;40.60
24035;DHT22;12242;50.952;4.678;2022-07-18T13:33:35;38.30;40.80
24035;DHT22;12242;50.952;4.678;2022-07-18T13:36:05;38.10;39.30
24035;DHT22;12242;50.952;4.678;2022-07-18T13:38:32;38.10;42.00
24035;DHT22;12242;50.952;4.678;2022-07-18T13:41:11;38.10;41.60
24035;DHT22;12242;50.952;4.678;2022-07-18T13:44:03;38.20;42.30
24035;DHT22;12242;50.952;4.678;2022-07-18T13:46:34;38.10;41.00
24035;DHT22;12242;50.952;4.678;2022-07-18T13:49:02;38.10;41.20
24035;DHT22;12242;50.952;4.678;2022-07-18T13:51:30;37.90;40.70
24035;DHT22;12242;50.952;4.678;2022-07-18T13:53:58;38.00;42.40
24035;DHT22;12242;50.952;4.678;2022-07-18T13:56:26;38.00;43.20
24035;DHT22;12242;50.952;4.678;2022-07-18T13:58:53;38.10;38.80
24035;DHT22;12242;50.952;4.678;2022-07-18T14:01:25;37.90;39.30
24035;DHT22;12242;50.952;4.678;2022-07-18T14:03:55;37.90;40.50
24035;DHT22;12242;50.952;4.678;2022-07-18T14:06:25;37.40;39.10
24035;DHT22;12242;50.952;4.678;2022-07-18T14:08:56;37.30;41.40
24035;DHT22;12242;50.952;4.678;2022-07-18T14:11:26;37.40;40.20
24035;DHT22;12242;50.952;4.678;2022-07-18T14:13:56;37.60;41.00
24035;DHT22;12242;50.952;4.678;2022-07-18T14:16:27;37.60;39.90
24035;DHT22;12242;50.952;4.678;2022-07-18T14:18:54;37.50;41.90
24035;DHT22;12242;50.952;4.678;2022-07-18T14:21:24;37.40;42.40
24035;DHT22;12242;50.952;4.678;2022-07-18T14:23:51;37.30;40.60
24035;DHT22;12242;50.952;4.678;2022-07-18T14:26:20;37.30;41.40
24035;DHT22;12242;50.952;4.678;2022-07-18T14:28:47;37.10;41.70
24035;DHT22;12242;50.952;4.678;2022-07-18T14:31:16;37.00;40.10
24035;DHT22;12242;50.952;4.678;2022-07-18T14:33:47;37.00;40.60
24035;DHT22;12242;50.952;4.678;2022-07-18T14:36:17;37.00;41.20
24035;DHT22;12242;50.952;4.678;2022-07-18T14:38:45;36.90;40.20
24035;DHT22;12242;50.952;4.678;2022-07-18T14:41:15;36.80;41.60
24035;DHT22;12242;50.952;4.678;2022-07-18T14:43:44;36.80;40.50
24035;DHT22;12242;50.952;4.678;2022-07-18T14:46:14;36.70;39.60
24035;DHT22;12242;50.952;4.678;2022-07-18T14:48:42;36.60;40.00
24035;DHT22;12242;50.952;4.678;2022-07-18T14:51:14;36.60;40.20
24035;DHT22;12242;50.952;4.678;2022-07-18T14:53:42;36.40;40.00
24035;DHT22;12242;50.952;4.678;2022-07-18T14:56:10;36.40;41.90
24035;DHT22;12242;50.952;4.678;2022-07-18T14:58:38;36.30;40.30
24035;DHT22;12242;50.952;4.678;2022-07-18T15:01:08;36.30;42.10
24035;DHT22;12242;50.952;4.678;2022-07-18T15:03:36;36.30;39.50
24035;DHT22;12242;50.952;4.678;2022-07-18T15:06:21;36.20;41.30
24035;DHT22;12242;50.952;4.678;2022-07-18T15:08:51;36.20;39.90
24035;DHT22;12242;50.952;4.678;2022-07-18T15:11:18;36.10;39.20
24035;DHT22;12242;50.952;4.678;2022-07-18T15:13:51;36.10;40.30
24035;DHT22;12242;50.952;4.678;2022-07-18T15:16:21;36.10;41.60
24035;DHT22;12242;50.952;4.678;2022-07-18T15:18:48;36.00;40.60
24035;DHT22;12242;50.952;4.678;2022-07-18T15:21:18;35.90;40.40
24035;DHT22;12242;50.952;4.678;2022-07-18T15:23:45;35.80;40.60
24035;DHT22;12242;50.952;4.678;2022-07-18T15:26:13;35.80;41.00
24035;DHT22;12242;50.952;4.678;2022-07-18T15:28:43;35.80;39.90
24035;DHT22;12242;50.952;4.678;2022-07-18T15:31:11;35.80;40.50
24035;DHT22;12242;50.952;4.678;2022-07-18T15:33:41;35.70;40.40
24035;DHT22;12242;50.952;4.678;2022-07-18T15:36:10;35.70;40.70
24035;DHT22;12242;50.952;4.678;2022-07-18T15:38:40;35.50;41.00
24035;DHT22;12242;50.952;4.678;2022-07-18T15:41:09;35.30;43.00
24035;DHT22;12242;50.952;4.678;2022-07-18T15:43:37;35.20;41.90
24035;DHT22;12242;50.952;4.678;2022-07-18T15:46:10;35.20;42.00
24035;DHT22;12242;50.952;4.678;2022-07-18T15:48:44;35.10;42.70
24035;DHT22;12242;50.952;4.678;2022-07-18T15:51:12;35.20;43.70
24035;DHT22;12242;50.952;4.678;2022-07-18T15:53:40;35.10;42.90
24035;DHT22;12242;50.952;4.678;2022-07-18T15:56:08;35.20;43.30
24035;DHT22;12242;50.952;4.678;2022-07-18T15:58:36;35.20;41.40
24035;DHT22;12242;50.952;4.678;2022-07-18T16:01:04;35.30;40.50
24035;DHT22;12242;50.952;4.678;2022-07-18T16:03:34;35.50;41.60
24035;DHT22;12242;50.952;4.678;2022-07-18T16:06:04;35.40;40.40
24035;DHT22;12242;50.952;4.678;2022-07-18T16:08:31;35.30;41.20
24035;DHT22;12242;50.952;4.678;2022-07-18T16:11:01;35.20;42.20
24035;DHT22;12242;50.952;4.678;2022-07-18T16:13:29;34.90;44.30
24035;DHT22;12242;50.952;4.678;2022-07-18T16:15:58;34.80;43.10
24035;DHT22;12242;50.952;4.678;2022-07-18T16:18:26;34.90;43.70
24035;DHT22;12242;50.952;4.678;2022-07-18T16:20:53;35.00;41.80
24035;DHT22;12242;50.952;4.678;2022-07-18T16:23:21;35.00;41.60
24035;DHT22;12242;50.952;4.678;2022-07-18T16:25:49;35.00;40.70
24035;DHT22;12242;50.952;4.678;2022-07-18T16:28:19;35.10;40.40
24035;DHT22;12242;50.952;4.678;2022-07-18T16:30:49;35.10;41.70
24035;DHT22;12242;50.952;4.678;2022-07-18T16:33:17;35.00;44.00
24035;DHT22;12242;50.952;4.678;2022-07-18T16:35:44;35.00;41.40
24035;DHT22;12242;50.952;4.678;2022-07-18T16:38:14;35.00;42.80
24035;DHT22;12242;50.952;4.678;2022-07-18T16:40:42;34.90;43.10
24035;DHT22;12242;50.952;4.678;2022-07-18T16:43:09;34.80;45.50
24035;DHT22;12242;50.952;4.678;2022-07-18T16:45:38;34.70;45.60